createdAt,value
2018-11-22T00:01:50.489Z,31.53
2018-11-22T00:04:21.284Z,31.93
2018-11-22T00:06:51.913Z,33.63
2018-11-22T00:09:22.512Z,33.90
2018-11-22T00:11:53.107Z,31.90
2018-11-22T00:14:28.122Z,33.07
2018-11-22T00:16:59.011Z,32.80
2018-11-22T00:19:29.701Z,33.97
2018-11-22T00:22:00.433Z,34.30
2018-11-22T00:24:32.081Z,35.93
2018-11-22T00:27:02.687Z,31.80
2018-11-22T00:29:34.522Z,33.30
2018-11-22T00:32:06.095Z,33.27
2018-11-22T00:34:37.813Z,33.03
2018-11-22T00:37:09.506Z,36.07
2018-11-22T00:39:40.139Z,32.93
2018-11-22T00:42:12.145Z,34.27
2018-11-22T00:44:42.795Z,31.30
2018-11-22T00:47:14.501Z,33.67
2018-11-22T00:49:46.007Z,32.57
2018-11-22T00:52:16.781Z,34.20
2018-11-22T00:54:47.341Z,33.30
2018-11-22T00:57:18.437Z,30.90
2018-11-22T00:59:48.992Z,32.53
2018-11-22T01:02:19.598Z,29.80
2018-11-22T01:04:50.568Z,30.27
2018-11-22T01:07:21.212Z,32.10
2018-11-22T01:09:52.859Z,30.00
2018-11-22T01:12:23.434Z,28.87
2018-11-22T01:14:58.503Z,29.33
2018-11-22T01:17:29.400Z,28.83
2018-11-22T01:20:01.068Z,29.47
2018-11-22T01:22:31.644Z,32.83
2018-11-22T01:25:03.682Z,30.87
2018-11-22T01:27:34.255Z,33.03
2018-11-22T01:30:05.622Z,30.83
2018-11-22T01:32:37.705Z,31.23
2018-11-22T01:35:09.300Z,29.07
2018-11-22T01:37:41.738Z,31.13
2018-11-22T01:40:16.938Z,31.07
2018-11-22T01:42:47.947Z,30.03
2018-11-22T01:45:21.331Z,31.57
2018-11-22T01:47:51.907Z,32.03
2018-11-22T01:50:22.882Z,32.67
2018-11-22T01:52:53.794Z,30.23
2018-11-22T01:55:25.146Z,32.60
2018-11-22T01:57:56.218Z,30.03
2018-11-22T02:00:27.359Z,28.03
2018-11-22T02:02:58.185Z,31.30
2018-11-22T02:05:28.753Z,31.00
2018-11-22T02:07:59.476Z,30.03
2018-11-22T02:10:31.210Z,27.53
2018-11-22T02:13:01.843Z,29.33
2018-11-22T02:15:32.637Z,29.40
2018-11-22T02:18:03.633Z,27.50
2018-11-22T02:20:34.255Z,28.80
2018-11-22T02:23:04.956Z,30.63
2018-11-22T02:25:36.659Z,30.47
2018-11-22T02:28:07.921Z,29.40
2018-11-22T02:30:38.479Z,31.13
2018-11-22T02:33:08.470Z,31.30
2018-11-22T02:35:39.123Z,27.23
2018-11-22T02:38:10.778Z,29.77
2018-11-22T02:40:41.459Z,29.40
2018-11-22T02:43:13.190Z,31.47
2018-11-22T02:45:44.137Z,31.50
2018-11-22T02:48:14.790Z,29.43
2018-11-22T02:50:45.364Z,30.63
2018-11-22T02:53:16.436Z,31.43
2018-11-22T02:55:47.197Z,33.00
2018-11-22T02:58:17.792Z,31.23
2018-11-22T03:00:48.407Z,31.80
2018-11-22T03:03:19.001Z,31.17
2018-11-22T03:05:49.677Z,31.03
2018-11-22T03:08:20.297Z,33.03
2018-11-22T03:10:50.976Z,30.97
2018-11-22T03:13:22.112Z,32.23
2018-11-22T03:15:52.782Z,30.83
2018-11-22T03:18:24.734Z,30.20
2018-11-22T03:20:55.358Z,32.97
2018-11-22T03:23:26.017Z,33.30
2018-11-22T03:25:56.656Z,32.23
2018-11-22T03:28:27.308Z,30.43
2018-11-22T03:30:57.951Z,32.30
2018-11-22T03:33:28.666Z,31.83
2018-11-22T03:36:00.021Z,33.40
2018-11-22T03:38:30.976Z,31.83
2018-11-22T03:41:02.076Z,34.57
2018-11-22T03:43:32.644Z,32.33
2018-11-22T03:46:03.286Z,32.70
2018-11-22T03:48:34.379Z,31.53
2018-11-22T03:51:06.832Z,31.80
2018-11-22T03:53:37.576Z,28.83
2018-11-22T03:56:08.248Z,30.30
2018-11-22T03:58:38.849Z,30.70
2018-11-22T04:01:09.409Z,31.67
2018-11-22T04:03:40.007Z,31.17
2018-11-22T04:06:13.994Z,29.07
2018-11-22T04:08:44.662Z,29.40
2018-11-22T04:11:15.247Z,30.07
2018-11-22T04:13:46.312Z,30.20
2018-11-22T04:16:17.431Z,28.20
2018-11-22T04:18:48.203Z,27.03
2018-11-22T04:21:18.797Z,31.17
2018-11-22T04:23:49.369Z,33.67
2018-11-22T04:26:24.047Z,32.93
2018-11-22T04:28:50.746Z,30.33
2018-11-22T04:31:21.415Z,33.03
2018-11-22T04:33:53.170Z,33.77
2018-11-22T04:36:23.865Z,33.83
2018-11-22T04:38:54.669Z,32.80
2018-11-22T04:41:25.478Z,31.47
2018-11-22T04:43:57.336Z,30.20
2018-11-22T04:46:28.241Z,31.20
2018-11-22T04:49:00.291Z,33.87
2018-11-22T04:51:31.655Z,30.00
2018-11-22T04:54:02.455Z,29.83
2018-11-22T04:56:33.085Z,32.77
2018-11-22T04:59:03.760Z,35.07
2018-11-22T05:01:34.311Z,30.07
2018-11-22T05:04:06.056Z,29.63
2018-11-22T05:06:36.636Z,30.57
2018-11-22T05:09:09.997Z,31.93
2018-11-22T05:11:40.595Z,28.40
2018-11-22T05:14:11.239Z,31.03
2018-11-22T05:16:42.006Z,29.90
2018-11-22T05:19:12.604Z,30.30
2018-11-22T05:21:43.232Z,31.30
2018-11-22T05:24:14.189Z,32.57
2018-11-22T05:26:45.025Z,30.50
2018-11-22T05:29:15.698Z,29.53
2018-11-22T05:31:46.478Z,31.60
2018-11-22T05:34:17.109Z,32.43
2018-11-22T05:36:47.965Z,33.23
2018-11-22T05:39:19.038Z,30.47
2018-11-22T05:41:50.229Z,34.80
2018-11-22T05:44:21.221Z,31.07
2018-11-22T05:46:53.940Z,32.97
2018-11-22T05:49:24.564Z,30.83
2018-11-22T05:51:56.940Z,32.00
2018-11-22T05:54:28.613Z,30.40
2018-11-22T05:56:59.573Z,31.37
2018-11-22T05:59:30.275Z,31.77
2018-11-22T06:02:01.188Z,33.50
2018-11-22T06:04:32.852Z,33.10
2018-11-22T06:07:03.489Z,34.30
2018-11-22T06:09:34.132Z,31.17
2018-11-22T06:12:05.023Z,29.27
2018-11-22T06:14:35.658Z,31.30
2018-11-22T06:17:07.362Z,30.07
2018-11-22T06:19:38.916Z,35.33
2018-11-22T06:22:09.660Z,35.07
2018-11-22T06:24:40.277Z,32.23
2018-11-22T06:27:10.875Z,32.83
2018-11-22T06:29:41.571Z,33.13
2018-11-22T06:32:12.129Z,33.80
2018-11-22T06:34:43.116Z,32.27
2018-11-22T06:37:14.046Z,31.73
2018-11-22T06:39:46.497Z,30.00
2018-11-22T06:42:17.149Z,34.23
2018-11-22T06:44:47.848Z,33.63
2018-11-22T06:47:18.763Z,33.47
2018-11-22T06:49:49.364Z,34.33
2018-11-22T06:52:21.006Z,35.97
2018-11-22T06:54:51.712Z,35.63
2018-11-22T06:57:22.420Z,33.43
2018-11-22T06:59:53.083Z,34.37
2018-11-22T07:02:26.144Z,31.20
2018-11-22T07:04:56.738Z,32.43
2018-11-22T07:07:27.972Z,33.87
2018-11-22T07:09:58.569Z,32.60
2018-11-22T07:12:29.286Z,35.33
2018-11-22T07:15:00.329Z,34.30
2018-11-22T07:17:31.099Z,35.50
2018-11-22T07:20:01.823Z,37.80
2018-11-22T07:22:32.438Z,35.57
2018-11-22T07:25:03.445Z,33.40
2018-11-22T07:27:38.264Z,33.53
2018-11-22T07:30:04.916Z,37.37
2018-11-22T07:32:35.635Z,35.33
2018-11-22T07:35:08.117Z,33.97
2018-11-22T07:37:40.369Z,34.60
2018-11-22T07:40:13.697Z,32.33
2018-11-22T07:42:50.567Z,31.73
2018-11-22T07:45:17.653Z,34.80
2018-11-22T07:47:48.607Z,32.87
2018-11-22T07:50:21.143Z,32.23
2018-11-22T07:52:52.373Z,35.03
2018-11-22T07:55:23.441Z,30.47
2018-11-22T07:57:53.996Z,34.57
2018-11-22T08:00:37.661Z,32.67
2018-11-22T08:03:08.865Z,34.67
2018-11-22T08:05:41.285Z,34.93
2018-11-22T08:08:12.505Z,33.87
2018-11-22T08:10:44.265Z,31.83
2018-11-22T08:13:16.263Z,33.60
2018-11-22T08:15:46.997Z,33.00
2018-11-22T08:18:17.599Z,35.80
2018-11-22T08:20:48.350Z,33.13
2018-11-22T08:23:18.980Z,31.90
2018-11-22T08:25:50.623Z,33.53
2018-11-22T08:28:21.287Z,33.93
2018-11-22T08:30:52.094Z,31.37
2018-11-22T08:33:22.702Z,34.40
2018-11-22T08:35:54.047Z,31.70
2018-11-22T08:38:24.831Z,32.17
2018-11-22T08:40:55.544Z,32.80
2018-11-22T08:43:26.173Z,33.10
2018-11-22T08:45:56.869Z,31.13
2018-11-22T08:48:28.604Z,30.03
2018-11-22T08:50:59.164Z,31.80
2018-11-22T08:53:33.310Z,28.67
2018-11-22T08:56:00.551Z,32.20
2018-11-22T08:58:32.257Z,35.53
2018-11-22T09:01:02.804Z,33.83
2018-11-22T09:03:33.503Z,31.00
2018-11-22T09:06:04.374Z,36.47
2018-11-22T09:08:35.023Z,36.97
2018-11-22T09:11:05.803Z,33.97
2018-11-22T09:13:36.455Z,37.53
2018-11-22T09:16:07.521Z,32.17
2018-11-22T09:18:38.273Z,31.73
2018-11-22T09:21:09.071Z,33.13
2018-11-22T09:23:39.922Z,34.77
2018-11-22T09:26:10.503Z,34.03
2018-11-22T09:28:41.289Z,36.53
2018-11-22T09:31:11.868Z,31.37
2018-11-22T09:36:16.236Z,31.93
2018-11-22T09:38:46.939Z,34.87
2018-11-22T09:41:18.750Z,38.00
2018-11-22T09:43:50.022Z,33.53
2018-11-22T09:46:21.250Z,33.23
2018-11-22T09:48:51.935Z,34.00
2018-11-22T09:51:22.924Z,37.20
2018-11-22T09:53:53.612Z,34.30
2018-11-22T09:56:24.319Z,34.70
2018-11-22T09:58:55.106Z,34.47
2018-11-22T10:01:25.852Z,37.70
2018-11-22T10:03:56.583Z,33.77
2018-11-22T10:06:27.214Z,33.67
2018-11-22T10:08:57.951Z,33.37
2018-11-22T10:11:28.556Z,32.27
2018-11-22T10:13:59.273Z,35.87
2018-11-22T10:16:31.129Z,31.60
2018-11-22T10:19:01.921Z,30.80
2018-11-22T10:21:34.415Z,31.20
2018-11-22T10:24:05.482Z,30.03
2018-11-22T10:26:38.742Z,29.43
2018-11-22T10:29:10.599Z,28.43
2018-11-22T10:31:41.378Z,27.23
2018-11-22T10:34:12.236Z,28.07
2018-11-22T10:36:43.205Z,27.50
2018-11-22T10:39:14.101Z,28.53
2018-11-22T10:41:45.797Z,28.57
2018-11-22T10:44:17.593Z,26.20
2018-11-22T10:46:48.203Z,26.93
2018-11-22T10:49:19.332Z,27.27
2018-11-22T10:51:49.964Z,27.20
2018-11-22T10:54:20.733Z,27.30
2018-11-22T10:56:51.383Z,27.40
2018-11-22T10:59:22.183Z,28.37
2018-11-22T12:17:39.422Z,36.10
2018-11-22T12:20:10.162Z,35.43
2018-11-22T12:22:40.483Z,33.00
2018-11-22T12:25:13.788Z,36.13
2018-11-22T12:27:46.480Z,34.27
2018-11-22T12:30:27.109Z,34.57
2018-11-22T12:33:05.325Z,32.40
2018-11-22T12:35:46.603Z,35.23
2018-11-22T12:38:25.148Z,34.33
2018-11-22T12:40:57.531Z,35.00
2018-11-22T12:43:26.911Z,32.47
2018-11-22T12:45:56.097Z,34.60
2018-11-22T12:48:29.138Z,35.37
2018-11-22T12:50:58.393Z,36.93
2018-11-22T12:53:27.989Z,33.20
2018-11-22T12:55:57.299Z,36.20
2018-11-22T12:58:27.280Z,35.73
2018-11-22T13:00:57.356Z,36.57
2018-11-22T13:03:26.513Z,34.53
2018-11-22T13:05:55.710Z,33.97
2018-11-22T13:08:25.191Z,34.73
2018-11-22T13:10:55.464Z,34.33
2018-11-22T13:13:24.682Z,34.90
2018-11-22T13:15:53.797Z,34.77
2018-11-22T13:18:23.020Z,35.43
2018-11-22T13:20:52.180Z,34.50
2018-11-22T13:23:21.340Z,33.00
2018-11-22T13:25:52.090Z,37.43
2018-11-22T13:28:21.210Z,37.10
2018-11-22T13:30:50.340Z,36.07
2018-11-22T13:33:19.446Z,38.87
2018-11-22T13:35:49.670Z,34.93
2018-11-22T13:38:18.773Z,37.27
2018-11-22T13:40:47.949Z,37.53
2018-11-22T13:43:17.039Z,36.50
2018-11-22T13:45:46.140Z,35.27
2018-11-22T13:48:15.229Z,36.00
2018-11-22T13:50:44.446Z,35.80
2018-11-22T13:53:13.569Z,37.00
2018-11-22T13:55:43.829Z,36.93
2018-11-22T13:58:13.036Z,37.77
2018-11-22T14:00:43.254Z,37.93
2018-11-22T14:03:12.408Z,35.03
2018-11-22T14:05:41.580Z,36.63
2018-11-22T14:08:10.791Z,34.73
2018-11-22T14:10:39.960Z,38.17
2018-11-22T14:13:09.047Z,39.40
2018-11-22T14:15:39.283Z,38.23
2018-11-22T14:18:08.411Z,36.03
2018-11-22T14:20:38.649Z,34.47
2018-11-22T14:23:07.734Z,37.67
2018-11-22T14:27:08.289Z,38.40
2018-11-22T14:29:37.553Z,44.03
2018-11-22T14:32:06.679Z,36.97
2018-11-22T14:34:35.761Z,35.00
2018-11-22T14:37:05.377Z,36.83
2018-11-22T14:39:34.456Z,35.50
2018-11-22T14:42:03.733Z,37.50
2018-11-22T14:44:32.964Z,36.33
2018-11-22T14:47:02.105Z,35.30
2018-11-22T14:49:31.253Z,37.20
2018-11-22T14:52:00.807Z,35.80
2018-11-22T14:54:29.917Z,39.83
2018-11-22T14:56:59.048Z,39.30
2018-11-22T14:59:28.168Z,38.70
2018-11-22T15:01:58.260Z,37.87
2018-11-22T15:04:27.469Z,37.30
2018-11-22T15:06:56.580Z,38.87
2018-11-22T15:09:27.769Z,38.60
2018-11-22T15:11:57.003Z,39.33
2018-11-22T15:14:27.389Z,40.93
2018-11-22T15:16:56.557Z,39.67
2018-11-22T15:19:26.875Z,36.93
2018-11-22T15:21:56.086Z,38.03
2018-11-22T15:24:25.266Z,36.47
2018-11-22T15:26:54.372Z,37.27
2018-11-22T15:29:23.603Z,37.60
2018-11-22T15:31:53.004Z,36.70
2018-11-22T15:34:22.970Z,36.57
2018-11-22T15:36:52.351Z,37.73
2018-11-22T15:39:21.674Z,37.33
2018-11-22T15:41:51.827Z,37.77
2018-11-22T15:44:21.033Z,38.70
2018-11-22T15:46:50.192Z,36.37
2018-11-22T15:49:19.290Z,38.73
2018-11-22T15:51:48.490Z,49.70
2018-11-22T15:54:18.408Z,47.07
2018-11-22T15:56:47.576Z,47.20
2018-11-22T15:59:16.949Z,44.83
2018-11-22T16:01:46.054Z,37.83
2018-11-22T16:04:15.270Z,35.53
2018-11-22T16:06:45.070Z,34.70
2018-11-22T16:09:14.225Z,35.57
2018-11-22T16:11:43.454Z,36.80
2018-11-22T16:14:12.664Z,40.60
2018-11-22T16:16:41.992Z,37.90
2018-11-22T16:19:11.748Z,35.80
2018-11-22T16:21:43.018Z,36.77
2018-11-22T16:24:13.283Z,37.77
2018-11-22T16:26:43.523Z,35.20
2018-11-22T16:29:12.687Z,36.03
2018-11-22T16:31:42.917Z,36.10
2018-11-22T16:34:12.334Z,39.67
2018-11-22T16:36:41.512Z,34.83
2018-11-22T16:39:11.202Z,33.93
2018-11-22T16:41:40.364Z,36.87
2018-11-22T16:44:09.496Z,41.60
2018-11-22T16:46:38.663Z,39.27
2018-11-22T16:49:08.600Z,38.43
2018-11-22T16:51:39.800Z,39.80
2018-11-22T16:54:08.897Z,40.83
2018-11-22T16:56:40.062Z,40.27
2018-11-22T16:59:09.224Z,37.23
2018-11-22T17:01:38.400Z,37.83
2018-11-22T17:04:07.479Z,35.70
2018-11-22T17:06:36.788Z,37.73
2018-11-22T17:09:08.770Z,39.70
2018-11-22T17:11:39.232Z,40.20
2018-11-22T17:14:08.367Z,41.27
2018-11-22T17:16:39.514Z,40.70
2018-11-22T17:19:08.598Z,42.80
2018-11-22T17:21:37.895Z,37.70
2018-11-22T17:24:07.239Z,33.83
2018-11-22T17:26:36.438Z,38.80
2018-11-22T17:29:05.596Z,38.97
2018-11-22T17:31:35.818Z,36.93
2018-11-22T17:34:04.990Z,40.37
2018-11-22T17:36:35.218Z,36.47
2018-11-22T17:39:07.178Z,37.27
2018-11-22T17:41:37.092Z,36.87
2018-11-22T17:44:06.478Z,39.83
2018-11-22T17:46:37.339Z,38.43
2018-11-22T17:49:07.182Z,42.00
2018-11-22T17:51:36.504Z,42.63
2018-11-22T17:54:06.414Z,39.87
2018-11-22T17:56:35.617Z,41.00
2018-11-22T17:59:04.792Z,38.37
2018-11-22T18:01:34.059Z,40.43
2018-11-22T18:04:04.258Z,39.80
2018-11-22T18:06:33.530Z,40.87
2018-11-22T18:09:02.736Z,43.87
2018-11-22T18:11:31.963Z,40.80
2018-11-22T18:14:01.116Z,41.50
2018-11-22T18:16:30.237Z,44.17
2018-11-22T18:19:00.453Z,42.37
2018-11-22T18:21:29.554Z,43.27
2018-11-22T18:23:58.786Z,45.20
2018-11-22T18:26:28.909Z,48.03
2018-11-22T18:28:58.878Z,41.13
2018-11-22T18:31:28.014Z,42.03
2018-11-22T18:33:57.134Z,49.47
2018-11-22T18:36:26.316Z,54.50
2018-11-22T18:38:55.400Z,50.07
2018-11-22T18:41:24.544Z,42.17
2018-11-22T18:43:53.686Z,41.67
2018-11-22T18:46:22.950Z,42.17
2018-11-22T18:48:52.646Z,41.87
2018-11-22T18:51:21.958Z,42.57
2018-11-22T18:53:51.203Z,41.63
2018-11-22T18:56:20.362Z,39.37
2018-11-22T18:58:51.457Z,43.17
2018-11-22T19:01:22.276Z,39.90
2018-11-22T19:03:52.595Z,40.13
2018-11-22T19:06:21.718Z,47.00
2018-11-22T19:08:50.926Z,51.50
2018-11-22T19:11:20.091Z,46.23
2018-11-22T19:13:55.161Z,41.03
2018-11-22T19:16:25.044Z,41.40
2018-11-22T19:18:54.202Z,41.20
2018-11-22T19:21:23.561Z,39.17
2018-11-22T19:23:53.821Z,42.17
2018-11-22T19:26:22.967Z,37.30
2018-11-22T19:28:52.163Z,41.67
2018-11-22T19:31:21.454Z,42.57
2018-11-22T19:33:50.948Z,42.87
2018-11-22T19:36:21.339Z,41.57
2018-11-22T19:38:50.456Z,41.17
2018-11-22T19:41:20.659Z,42.07
2018-11-22T19:43:49.753Z,39.50
2018-11-22T19:46:18.978Z,39.23
2018-11-22T19:48:48.573Z,45.17
2018-11-22T19:51:19.732Z,42.47
2018-11-22T19:53:48.876Z,42.70
2018-11-22T19:56:20.274Z,42.87
2018-11-22T19:58:49.493Z,45.90
2018-11-22T20:01:19.835Z,42.93
2018-11-22T20:03:48.988Z,38.90
2018-11-22T20:06:18.179Z,44.03
2018-11-22T20:08:47.536Z,43.67
2018-11-22T20:11:16.643Z,44.60
2018-11-22T20:13:45.926Z,45.00
2018-11-22T20:16:15.032Z,39.60
2018-11-22T20:18:45.216Z,40.90
2018-11-22T20:21:14.411Z,42.37
2018-11-22T20:23:43.641Z,40.67
2018-11-22T20:26:12.949Z,45.87
2018-11-22T20:28:44.195Z,46.07
2018-11-22T20:31:13.371Z,46.87
2018-11-22T20:33:42.508Z,45.87
2018-11-22T20:36:11.643Z,43.63
2018-11-22T20:38:41.801Z,37.73
2018-11-22T20:41:11.094Z,43.00
2018-11-22T20:43:41.260Z,43.00
2018-11-22T20:46:10.561Z,39.73
2018-11-22T20:48:40.848Z,43.03
2018-11-22T20:51:10.073Z,41.60
2018-11-22T20:53:39.331Z,43.30
2018-11-22T20:56:08.414Z,44.90
2018-11-22T20:58:37.591Z,42.80
2018-11-22T21:01:07.044Z,42.70
2018-11-22T21:03:36.177Z,43.67
2018-11-22T21:06:05.863Z,40.40
2018-11-22T21:08:35.168Z,41.47
2018-11-22T21:11:04.553Z,43.33
2018-11-22T21:13:34.778Z,41.20
2018-11-22T21:16:03.932Z,42.70
2018-11-22T21:18:33.085Z,42.40
2018-11-22T21:21:02.190Z,44.53
2018-11-22T21:23:31.391Z,41.90
2018-11-22T21:26:00.521Z,44.50
2018-11-22T21:28:30.832Z,42.97
2018-11-22T21:30:59.931Z,45.90
2018-11-22T21:33:30.200Z,41.30
2018-11-22T21:35:59.336Z,46.57
2018-11-22T21:38:28.632Z,44.37
2018-11-22T21:40:57.855Z,43.30
2018-11-22T21:43:27.003Z,45.67
2018-11-22T21:45:56.132Z,45.77
2018-11-22T21:48:26.347Z,48.73
2018-11-22T21:50:55.621Z,49.50
2018-11-22T21:53:26.811Z,45.67
2018-11-22T21:55:56.594Z,43.17
2018-11-22T21:58:27.737Z,48.67
2018-11-22T22:00:56.876Z,48.07
2018-11-22T22:03:27.051Z,46.40
2018-11-22T22:05:56.255Z,48.93
2018-11-22T22:08:25.439Z,50.30
2018-11-22T22:10:54.524Z,46.53
2018-11-22T22:13:23.963Z,48.97
2018-11-22T22:15:53.076Z,46.60
2018-11-22T22:18:23.314Z,43.60
2018-11-22T22:20:52.794Z,46.10
2018-11-22T22:23:23.036Z,46.43
2018-11-22T22:25:52.198Z,48.80
2018-11-22T22:28:21.524Z,48.67
2018-11-22T22:30:51.295Z,49.90
2018-11-22T22:33:21.476Z,49.93
2018-11-22T22:35:50.652Z,48.23
2018-11-22T22:38:19.748Z,46.27
2018-11-22T22:40:48.999Z,45.70
2018-11-22T22:43:18.368Z,46.57
2018-11-22T22:45:48.810Z,48.93
2018-11-22T22:48:17.950Z,45.83
2018-11-22T22:50:48.176Z,45.83
2018-11-22T22:53:17.526Z,49.93
2018-11-22T22:55:46.766Z,46.47
2018-11-22T22:58:15.832Z,53.30
2018-11-22T23:00:49.056Z,49.37
2018-11-22T23:03:18.199Z,53.23
2018-11-22T23:05:47.302Z,50.37
2018-11-22T23:08:16.575Z,45.50
2018-11-22T23:10:45.730Z,49.57
2018-11-22T23:13:16.182Z,49.67
2018-11-22T23:15:45.287Z,46.03
2018-11-22T23:18:14.521Z,50.20
2018-11-22T23:20:43.633Z,51.73
2018-11-22T23:23:12.879Z,55.03
2018-11-22T23:25:42.031Z,50.27
2018-11-22T23:28:11.254Z,58.40
2018-11-22T23:30:40.491Z,48.87
2018-11-22T23:33:09.975Z,44.83
2018-11-22T23:35:40.185Z,47.20
2018-11-22T23:38:09.287Z,47.73
2018-11-22T23:40:39.610Z,43.47
2018-11-22T23:43:08.695Z,51.13
2018-11-22T23:45:38.479Z,53.93
2018-11-22T23:48:07.621Z,54.83
2018-11-22T23:50:38.899Z,55.80
2018-11-22T23:53:13.775Z,50.33
2018-11-22T23:55:43.046Z,49.13
2018-11-22T23:58:12.187Z,52.10
